createdAt,value
2023-01-20T08:27:44.374Z,2.17
2023-01-20T08:32:44.981Z,3.84
2023-01-20T08:37:24.193Z,2.28
2023-01-20T08:38:25.695Z,2.73
2023-01-20T08:41:37.555Z,3.46
2023-01-20T08:42:39.807Z,4.04
2023-01-20T08:45:21.831Z,4.11
2023-01-20T08:46:23.347Z,4.12
2023-01-20T08:48:53.393Z,4.05
2023-01-20T08:51:09.783Z,4.52
2023-01-20T08:53:16.604Z,4.71
2023-01-20T08:54:17.989Z,4.43
2023-01-20T08:55:19.902Z,4.56
2023-01-20T08:56:21.818Z,4.40
2023-01-20T08:57:25.765Z,4.25
2023-01-20T08:58:27.784Z,4.75
2023-01-20T08:59:29.237Z,5.01
2023-01-20T09:00:30.921Z,5.46
2023-01-20T09:01:36.215Z,5.51
2023-01-20T09:02:38.110Z,5.34
2023-01-20T09:03:41.031Z,5.59
2023-01-20T09:04:43.572Z,5.37
2023-01-20T09:05:44.938Z,5.86
2023-01-20T09:06:50.115Z,6.36
2023-01-20T09:07:51.549Z,6.72
2023-01-20T09:08:53.706Z,6.88
2023-01-20T09:09:55.042Z,7.58
2023-01-20T09:11:08.151Z,7.72
2023-01-20T09:12:09.641Z,7.33
2023-01-20T09:13:10.990Z,8.31
2023-01-20T09:14:12.384Z,9.04
2023-01-20T09:15:14.130Z,9.67
2023-01-20T09:16:17.644Z,9.18
2023-01-20T09:17:19.136Z,7.10
2023-01-20T09:18:20.560Z,6.41
2023-01-20T09:19:22.103Z,6.10
2023-01-20T09:20:24.620Z,6.89
2023-01-20T09:21:25.971Z,7.67
2023-01-20T09:22:27.436Z,8.27
2023-01-20T09:23:28.860Z,8.39
2023-01-20T09:24:30.242Z,9.19
2023-01-20T09:25:31.574Z,9.36
2023-01-20T09:26:38.414Z,8.71
2023-01-20T09:27:39.894Z,9.66
2023-01-20T09:28:44.849Z,9.15
2023-01-20T09:29:47.176Z,9.57
2023-01-20T09:30:48.676Z,8.77
2023-01-20T09:31:53.081Z,8.96
2023-01-20T09:32:56.326Z,8.42
2023-01-20T09:33:57.728Z,8.79
2023-01-20T09:34:59.097Z,8.61
2023-01-20T09:36:00.522Z,7.99
2023-01-20T09:37:21.445Z,8.08
2023-01-20T09:38:42.647Z,7.10
2023-01-20T09:40:02.676Z,6.12
2023-01-20T09:41:35.555Z,5.98
2023-01-20T09:43:20.952Z,6.73
2023-01-20T09:44:49.103Z,8.15
2023-01-20T09:46:03.293Z,6.84
2023-01-20T09:47:30.954Z,6.61
2023-01-20T09:49:24.924Z,5.44
2023-01-20T09:50:54.307Z,4.97
2023-01-20T09:52:31.775Z,5.22
2023-01-20T09:54:02.846Z,6.33
2023-01-20T09:55:20.885Z,5.87
2023-01-20T09:56:25.821Z,6.64
2023-01-20T09:57:33.521Z,7.45
2023-01-20T09:58:41.541Z,8.85
2023-01-20T09:59:49.756Z,9.04
2023-01-20T10:01:19.213Z,9.57
2023-01-20T10:02:26.651Z,10.77
2023-01-20T10:03:47.459Z,9.74
2023-01-20T10:04:54.619Z,9.74
2023-01-20T10:05:59.170Z,9.33
2023-01-20T10:07:06.637Z,9.45
2023-01-20T10:08:22.928Z,9.23
2023-01-20T10:09:40.981Z,9.59
2023-01-20T10:11:02.900Z,10.04
2023-01-20T10:12:31.542Z,9.24
2023-01-20T10:13:37.775Z,9.86
2023-01-20T10:14:47.081Z,10.72
2023-01-20T10:15:56.833Z,11.35
2023-01-20T10:17:07.044Z,11.44
2023-01-20T10:18:16.737Z,11.18
2023-01-20T10:19:42.331Z,11.38
2023-01-20T10:21:05.830Z,10.52
2023-01-20T10:22:13.325Z,10.82
2023-01-20T10:23:21.151Z,11.14
2023-01-20T10:24:31.550Z,11.06
2023-01-20T10:25:45.339Z,10.92
2023-01-20T10:27:01.253Z,10.87
2023-01-20T10:28:28.517Z,11.01
2023-01-20T10:29:39.214Z,10.74
2023-01-20T10:30:41.059Z,11.16
2023-01-20T10:31:49.857Z,10.37
2023-01-20T10:33:02.125Z,10.82
2023-01-20T10:34:12.783Z,11.18
2023-01-20T10:35:22.729Z,11.45
2023-01-20T10:36:30.028Z,11.39
2023-01-20T10:37:32.430Z,12.38
2023-01-20T10:38:54.974Z,11.38
2023-01-20T10:40:08.546Z,10.43
2023-01-20T10:41:21.751Z,11.41
2023-01-20T10:42:24.779Z,11.37
2023-01-20T10:43:26.320Z,12.18
2023-01-20T10:44:27.678Z,11.77
2023-01-20T10:45:47.223Z,11.61
2023-01-20T10:47:16.136Z,12.02
2023-01-20T10:48:50.398Z,11.98
2023-01-20T10:50:07.615Z,12.01
2023-01-20T10:51:32.591Z,12.08
2023-01-20T10:53:01.787Z,11.99
2023-01-20T10:54:23.590Z,12.39
2023-01-20T10:55:34.540Z,12.40
2023-01-20T10:57:04.415Z,12.02
2023-01-20T10:58:19.535Z,12.56
2023-01-20T10:59:35.048Z,13.28
2023-01-20T11:00:37.126Z,13.30
2023-01-20T11:01:38.608Z,12.85
2023-01-20T11:02:41.558Z,12.39
2023-01-20T11:03:45.561Z,12.38
2023-01-20T11:04:55.159Z,11.78
2023-01-20T11:05:56.843Z,12.08
2023-01-20T11:07:00.764Z,12.59
2023-01-20T11:08:03.687Z,12.56
2023-01-20T11:09:25.531Z,13.65
2023-01-20T11:10:30.107Z,12.84
2023-01-20T11:11:31.675Z,12.43
2023-01-20T11:12:39.199Z,12.52
2023-01-20T11:13:40.644Z,12.26
2023-01-20T11:14:42.663Z,12.11
2023-01-20T11:15:47.323Z,12.08
2023-01-20T11:17:05.057Z,12.43
2023-01-20T11:18:15.253Z,12.02
2023-01-20T11:19:16.642Z,12.00
2023-01-20T11:20:21.192Z,12.51
2023-01-20T11:21:28.087Z,12.45
2023-01-20T11:22:33.059Z,11.97
2023-01-20T11:23:41.620Z,11.96
2023-01-20T11:24:45.083Z,11.70
2023-01-20T11:25:58.037Z,11.76
2023-01-20T11:27:11.631Z,12.25
2023-01-20T11:28:18.309Z,12.49
2023-01-20T11:29:19.671Z,11.90
2023-01-20T11:30:28.706Z,12.22
2023-01-20T11:31:55.422Z,11.59
2023-01-20T11:33:16.114Z,12.00
2023-01-20T11:34:35.136Z,10.56
2023-01-20T11:35:36.702Z,10.32
2023-01-20T11:36:38.092Z,10.61
2023-01-20T11:37:40.202Z,11.14
2023-01-20T11:38:47.527Z,11.20
2023-01-20T11:39:48.860Z,11.08
2023-01-20T11:40:54.794Z,10.58
2023-01-20T11:42:16.403Z,10.07
2023-01-20T11:43:33.990Z,10.51
2023-01-20T11:44:42.612Z,10.97
2023-01-20T11:45:44.075Z,11.43
2023-01-20T11:46:45.526Z,10.67
2023-01-20T11:48:00.531Z,10.15
2023-01-20T11:49:21.967Z,10.11
2023-01-20T11:50:28.173Z,10.15
2023-01-20T11:51:29.797Z,9.89
2023-01-20T11:52:32.805Z,9.18
2023-01-20T11:53:34.287Z,10.05
2023-01-20T11:54:37.239Z,10.52
2023-01-20T11:56:19.746Z,10.23
2023-01-20T11:57:21.360Z,10.90
2023-01-20T11:58:28.856Z,11.42
2023-01-20T11:59:31.358Z,9.74
2023-01-20T12:00:40.851Z,7.05
2023-01-20T12:02:02.333Z,5.92
2023-01-20T12:03:25.929Z,5.40
2023-01-20T12:04:46.242Z,4.60
2023-01-20T12:05:54.769Z,4.49
2023-01-20T12:07:05.186Z,4.39
2023-01-20T12:08:15.513Z,4.31
2023-01-20T12:09:19.875Z,4.23
2023-01-20T12:10:28.384Z,4.15
2023-01-20T12:11:34.958Z,3.92
2023-01-20T12:12:51.274Z,3.79
2023-01-20T12:30:59.355Z,3.23
2023-01-20T12:43:32.660Z,4.00
2023-01-20T12:44:46.213Z,3.47
2023-01-20T13:20:28.724Z,2.58
2023-01-20T13:42:31.229Z,1.91
2023-01-20T13:43:46.842Z,3.06
2023-01-20T13:45:11.038Z,3.66
2023-01-20T13:46:14.977Z,4.18
2023-01-20T13:47:52.186Z,4.05
2023-01-20T13:49:21.061Z,4.80
2023-01-20T13:50:29.235Z,5.15
2023-01-20T13:51:36.732Z,5.50
2023-01-20T13:52:50.613Z,5.59
2023-01-20T13:53:52.299Z,4.94
2023-01-20T13:54:53.750Z,4.84
2023-01-20T13:55:57.942Z,4.80
2023-01-20T13:57:25.784Z,4.88
2023-01-20T13:58:31.561Z,5.32
2023-01-20T13:59:33.051Z,4.98
2023-01-20T14:00:34.636Z,4.87
2023-01-20T14:01:37.222Z,4.89
2023-01-20T14:02:38.851Z,4.78
2023-01-20T14:03:41.019Z,5.29
2023-01-20T14:04:46.151Z,5.17
2023-01-20T14:06:18.559Z,5.31
2023-01-20T14:07:30.951Z,5.45
2023-01-20T14:08:39.529Z,5.44
2023-01-20T14:09:51.412Z,5.61
2023-01-20T14:11:16.256Z,5.19
2023-01-20T14:12:17.714Z,5.69
2023-01-20T14:13:22.129Z,5.42
2023-01-20T14:14:26.054Z,5.64
2023-01-20T14:15:32.116Z,5.38
2023-01-20T14:16:33.643Z,5.34
2023-01-20T14:17:35.129Z,5.46
2023-01-20T14:18:36.542Z,5.38
2023-01-20T14:19:38.990Z,5.17
2023-01-20T14:20:41.095Z,4.91
2023-01-20T14:21:43.210Z,5.05
2023-01-20T14:22:44.640Z,4.55
2023-01-20T14:23:46.257Z,4.66
2023-01-20T14:24:50.053Z,4.41
2023-01-20T14:26:08.676Z,4.49
2023-01-20T14:27:28.227Z,4.85
2023-01-20T14:28:29.897Z,4.40
2023-01-20T14:29:31.221Z,4.01
2023-01-20T14:30:32.988Z,4.25
2023-01-20T14:31:42.640Z,4.04
2023-01-20T14:32:45.841Z,4.10
2023-01-20T14:33:51.861Z,4.07
2023-01-20T14:34:53.535Z,4.14
2023-01-20T14:35:54.945Z,4.17
2023-01-20T14:37:15.540Z,4.43
2023-01-20T14:38:18.425Z,4.62
2023-01-20T14:39:24.963Z,4.38
2023-01-20T14:40:26.422Z,4.53
2023-01-20T14:41:51.635Z,4.84
2023-01-20T14:43:01.634Z,4.80
2023-01-20T14:44:03.619Z,4.94
2023-01-20T14:45:19.070Z,4.87
2023-01-20T14:46:20.913Z,4.75
2023-01-20T14:47:24.698Z,4.70
2023-01-20T14:48:34.527Z,4.58
2023-01-20T14:49:40.354Z,4.35
2023-01-20T14:50:45.131Z,4.65
2023-01-20T14:51:48.196Z,4.89
2023-01-20T14:52:49.647Z,5.16
2023-01-20T14:54:28.827Z,4.99
2023-01-20T14:55:31.384Z,4.12
2023-01-20T14:56:32.842Z,3.88
2023-01-20T14:57:41.139Z,4.09
2023-01-20T14:58:51.981Z,4.33
2023-01-20T15:00:12.008Z,4.06
2023-01-20T15:01:25.188Z,3.69
2023-01-20T15:02:33.194Z,3.59
2023-01-20T15:03:34.899Z,3.74
2023-01-20T15:04:37.753Z,3.68
2023-01-20T15:05:51.940Z,3.61
2023-01-20T15:06:57.657Z,3.59
2023-01-20T15:08:26.230Z,3.40
